sensor_id;sensor_type;location;lat;lon;timestamp;temperature;humidity
65044;DHT22;51617;48.158;16.464;2023-04-01T00:02:00;13.20;81.50
65044;DHT22;51617;48.158;16.464;2023-04-01T00:04:25;13.30;81.60
65044;DHT22;51617;48.158;16.464;2023-04-01T00:06:51;13.20;81.50
65044;DHT22;51617;48.158;16.464;2023-04-01T00:09:17;13.20;81.30
65044;DHT22;51617;48.158;16.464;2023-04-01T00:11:43;13.20;81.30
65044;DHT22;51617;48.158;16.464;2023-04-01T00:14:10;13.10;81.20
65044;DHT22;51617;48.158;16.464;2023-04-01T00:16:36;13.10;81.40
65044;DHT22;51617;48.158;16.464;2023-04-01T00:19:02;13.10;81.40
65044;DHT22;51617;48.158;16.464;2023-04-01T00:21:27;13.10;81.40
65044;DHT22;51617;48.158;16.464;2023-04-01T00:23:53;13.10;81.30
65044;DHT22;51617;48.158;16.464;2023-04-01T00:26:20;13.10;81.60
65044;DHT22;51617;48.158;16.464;2023-04-01T00:28:47;13.10;81.20
65044;DHT22;51617;48.158;16.464;2023-04-01T00:31:13;13.10;81.00
65044;DHT22;51617;48.158;16.464;2023-04-01T00:33:39;13.10;81.30
65044;DHT22;51617;48.158;16.464;2023-04-01T00:36:06;13.00;81.50
65044;DHT22;51617;48.158;16.464;2023-04-01T00:38:33;13.00;81.40
65044;DHT22;51617;48.158;16.464;2023-04-01T00:40:59;13.10;81.20
65044;DHT22;51617;48.158;16.464;2023-04-01T00:43:25;13.00;81.40
65044;DHT22;51617;48.158;16.464;2023-04-01T00:45:51;13.00;81.50
65044;DHT22;51617;48.158;16.464;2023-04-01T00:48:17;12.90;81.60
65044;DHT22;51617;48.158;16.464;2023-04-01T00:53:42;13.00;81.50
65044;DHT22;51617;48.158;16.464;2023-04-01T00:56:12;13.00;81.40
65044;DHT22;51617;48.158;16.464;2023-04-01T00:58:40;13.00;81.80
65044;DHT22;51617;48.158;16.464;2023-04-01T01:01:06;12.90;81.90
65044;DHT22;51617;48.158;16.464;2023-04-01T01:03:33;12.90;81.90
65044;DHT22;51617;48.158;16.464;2023-04-01T01:11:02;13.00;81.80
65044;DHT22;51617;48.158;16.464;2023-04-01T01:13:36;13.00;81.80
65044;DHT22;51617;48.158;16.464;2023-04-01T01:16:05;13.00;81.80
65044;DHT22;51617;48.158;16.464;2023-04-01T01:18:39;12.90;81.60
65044;DHT22;51617;48.158;16.464;2023-04-01T01:37:20;13.00;81.60
65044;DHT22;51617;48.158;16.464;2023-04-01T01:39:50;12.90;81.30
65044;DHT22;51617;48.158;16.464;2023-04-01T01:42:16;12.90;81.60
65044;DHT22;51617;48.158;16.464;2023-04-01T01:44:44;12.90;81.60
65044;DHT22;51617;48.158;16.464;2023-04-01T01:47:10;12.90;81.70
65044;DHT22;51617;48.158;16.464;2023-04-01T01:49:36;12.90;81.70
65044;DHT22;51617;48.158;16.464;2023-04-01T01:52:04;12.80;81.80
65044;DHT22;51617;48.158;16.464;2023-04-01T01:54:30;12.80;81.90
65044;DHT22;51617;48.158;16.464;2023-04-01T01:56:57;12.90;81.60
65044;DHT22;51617;48.158;16.464;2023-04-01T01:59:25;12.80;82.00
65044;DHT22;51617;48.158;16.464;2023-04-01T02:01:52;12.80;82.20
65044;DHT22;51617;48.158;16.464;2023-04-01T02:04:20;12.80;82.10
65044;DHT22;51617;48.158;16.464;2023-04-01T02:06:53;12.70;82.40
65044;DHT22;51617;48.158;16.464;2023-04-01T02:09:20;12.80;82.40
65044;DHT22;51617;48.158;16.464;2023-04-01T02:11:48;12.70;82.60
65044;DHT22;51617;48.158;16.464;2023-04-01T02:14:16;12.60;83.00
65044;DHT22;51617;48.158;16.464;2023-04-01T02:17:00;12.60;83.30
65044;DHT22;51617;48.158;16.464;2023-04-01T02:19:29;12.60;83.60
65044;DHT22;51617;48.158;16.464;2023-04-01T02:21:57;12.60;83.80
65044;DHT22;51617;48.158;16.464;2023-04-01T02:24:24;12.50;84.10
65044;DHT22;51617;48.158;16.464;2023-04-01T02:26:51;12.50;84.80
65044;DHT22;51617;48.158;16.464;2023-04-01T02:29:21;12.40;85.10
65044;DHT22;51617;48.158;16.464;2023-04-01T02:31:48;12.40;85.20
65044;DHT22;51617;48.158;16.464;2023-04-01T02:34:15;12.40;85.20
65044;DHT22;51617;48.158;16.464;2023-04-01T02:36:41;12.40;85.40
65044;DHT22;51617;48.158;16.464;2023-04-01T02:39:07;12.40;85.30
65044;DHT22;51617;48.158;16.464;2023-04-01T02:41:38;12.40;85.30
65044;DHT22;51617;48.158;16.464;2023-04-01T02:44:04;12.30;85.40
65044;DHT22;51617;48.158;16.464;2023-04-01T02:46:29;12.40;84.90
65044;DHT22;51617;48.158;16.464;2023-04-01T02:48:55;12.40;84.70
65044;DHT22;51617;48.158;16.464;2023-04-01T02:51:20;12.30;84.70
65044;DHT22;51617;48.158;16.464;2023-04-01T02:53:46;12.30;84.60
65044;DHT22;51617;48.158;16.464;2023-04-01T02:56:12;12.30;84.50
65044;DHT22;51617;48.158;16.464;2023-04-01T02:58:37;12.40;84.50
65044;DHT22;51617;48.158;16.464;2023-04-01T03:01:03;12.30;84.40
65044;DHT22;51617;48.158;16.464;2023-04-01T03:03:28;12.30;84.60
65044;DHT22;51617;48.158;16.464;2023-04-01T03:05:54;12.30;84.60
65044;DHT22;51617;48.158;16.464;2023-04-01T03:08:21;12.30;84.60
65044;DHT22;51617;48.158;16.464;2023-04-01T03:10:47;12.30;84.60
65044;DHT22;51617;48.158;16.464;2023-04-01T03:13:12;12.40;84.50
65044;DHT22;51617;48.158;16.464;2023-04-01T03:15:38;12.30;85.20
65044;DHT22;51617;48.158;16.464;2023-04-01T03:18:03;12.40;85.40
65044;DHT22;51617;48.158;16.464;2023-04-01T03:20:29;12.30;85.60
65044;DHT22;51617;48.158;16.464;2023-04-01T03:22:54;12.30;85.40
65044;DHT22;51617;48.158;16.464;2023-04-01T03:25:20;12.30;85.60
65044;DHT22;51617;48.158;16.464;2023-04-01T03:27:47;12.20;85.70
65044;DHT22;51617;48.158;16.464;2023-04-01T03:30:12;12.30;85.70
65044;DHT22;51617;48.158;16.464;2023-04-01T03:32:38;12.20;85.90
65044;DHT22;51617;48.158;16.464;2023-04-01T03:35:03;12.10;85.80
65044;DHT22;51617;48.158;16.464;2023-04-01T03:37:30;12.10;86.10
65044;DHT22;51617;48.158;16.464;2023-04-01T03:39:55;12.10;85.80
65044;DHT22;51617;48.158;16.464;2023-04-01T03:42:21;12.00;86.00
65044;DHT22;51617;48.158;16.464;2023-04-01T03:44:46;12.10;86.10
65044;DHT22;51617;48.158;16.464;2023-04-01T03:47:12;12.10;86.00
65044;DHT22;51617;48.158;16.464;2023-04-01T03:49:37;12.10;86.30
65044;DHT22;51617;48.158;16.464;2023-04-01T03:52:03;12.20;86.20
65044;DHT22;51617;48.158;16.464;2023-04-01T03:54:28;12.20;86.20
65044;DHT22;51617;48.158;16.464;2023-04-01T03:56:54;12.20;86.30
65044;DHT22;51617;48.158;16.464;2023-04-01T03:59:20;12.00;86.70
65044;DHT22;51617;48.158;16.464;2023-04-01T04:01:46;12.00;86.70
65044;DHT22;51617;48.158;16.464;2023-04-01T04:04:12;12.00;87.20
65044;DHT22;51617;48.158;16.464;2023-04-01T04:06:40;12.00;86.50
65044;DHT22;51617;48.158;16.464;2023-04-01T04:09:05;12.00;86.60
65044;DHT22;51617;48.158;16.464;2023-04-01T04:11:31;12.00;86.40
65044;DHT22;51617;48.158;16.464;2023-04-01T04:13:58;12.10;86.10
65044;DHT22;51617;48.158;16.464;2023-04-01T04:16:23;12.10;86.10
65044;DHT22;51617;48.158;16.464;2023-04-01T04:18:49;12.00;86.20
65044;DHT22;51617;48.158;16.464;2023-04-01T04:21:16;12.00;86.40
65044;DHT22;51617;48.158;16.464;2023-04-01T04:23:42;12.00;86.40
65044;DHT22;51617;48.158;16.464;2023-04-01T04:26:09;12.00;86.30
65044;DHT22;51617;48.158;16.464;2023-04-01T04:28:35;12.10;85.90
65044;DHT22;51617;48.158;16.464;2023-04-01T04:31:00;12.10;85.60
65044;DHT22;51617;48.158;16.464;2023-04-01T04:33:26;12.00;85.90
65044;DHT22;51617;48.158;16.464;2023-04-01T04:35:54;12.00;85.60
65044;DHT22;51617;48.158;16.464;2023-04-01T04:38:19;12.00;85.50
65044;DHT22;51617;48.158;16.464;2023-04-01T04:40:45;12.00;85.80
65044;DHT22;51617;48.158;16.464;2023-04-01T04:43:11;12.00;85.70
65044;DHT22;51617;48.158;16.464;2023-04-01T04:45:37;12.00;85.50
65044;DHT22;51617;48.158;16.464;2023-04-01T04:48:03;12.10;85.30
65044;DHT22;51617;48.158;16.464;2023-04-01T04:50:28;12.10;85.20
65044;DHT22;51617;48.158;16.464;2023-04-01T04:52:54;12.20;87.40
65044;DHT22;51617;48.158;16.464;2023-04-01T04:55:20;12.30;88.30
65044;DHT22;51617;48.158;16.464;2023-04-01T04:57:45;12.30;85.00
65044;DHT22;51617;48.158;16.464;2023-04-01T05:00:11;12.20;84.80
65044;DHT22;51617;48.158;16.464;2023-04-01T05:02:37;12.20;84.90
65044;DHT22;51617;48.158;16.464;2023-04-01T05:05:03;12.20;85.00
65044;DHT22;51617;48.158;16.464;2023-04-01T05:07:29;12.10;85.10
65044;DHT22;51617;48.158;16.464;2023-04-01T05:09:55;12.10;85.20
65044;DHT22;51617;48.158;16.464;2023-04-01T05:12:20;12.10;85.20
65044;DHT22;51617;48.158;16.464;2023-04-01T05:14:46;12.10;85.10
65044;DHT22;51617;48.158;16.464;2023-04-01T05:17:11;12.10;85.20
65044;DHT22;51617;48.158;16.464;2023-04-01T05:19:37;12.00;85.60
65044;DHT22;51617;48.158;16.464;2023-04-01T05:22:03;12.00;85.70
65044;DHT22;51617;48.158;16.464;2023-04-01T05:24:29;12.00;85.50
65044;DHT22;51617;48.158;16.464;2023-04-01T05:26:55;12.10;85.80
65044;DHT22;51617;48.158;16.464;2023-04-01T05:29:21;12.20;85.50
65044;DHT22;51617;48.158;16.464;2023-04-01T05:31:47;12.30;85.30
65044;DHT22;51617;48.158;16.464;2023-04-01T05:34:12;12.20;85.30
65044;DHT22;51617;48.158;16.464;2023-04-01T05:36:38;12.20;85.80
65044;DHT22;51617;48.158;16.464;2023-04-01T05:39:04;12.20;85.80
65044;DHT22;51617;48.158;16.464;2023-04-01T05:41:29;12.30;85.60
65044;DHT22;51617;48.158;16.464;2023-04-01T05:43:55;12.20;86.10
65044;DHT22;51617;48.158;16.464;2023-04-01T05:46:21;12.30;86.10
65044;DHT22;51617;48.158;16.464;2023-04-01T05:48:46;12.40;85.80
65044;DHT22;51617;48.158;16.464;2023-04-01T05:51:15;12.40;85.60
65044;DHT22;51617;48.158;16.464;2023-04-01T05:53:41;12.40;85.50
65044;DHT22;51617;48.158;16.464;2023-04-01T05:56:06;12.50;85.80
65044;DHT22;51617;48.158;16.464;2023-04-01T05:58:35;12.50;85.80
65044;DHT22;51617;48.158;16.464;2023-04-01T06:01:03;12.50;85.60
65044;DHT22;51617;48.158;16.464;2023-04-01T06:03:29;12.50;85.50
65044;DHT22;51617;48.158;16.464;2023-04-01T06:05:55;12.60;85.30
65044;DHT22;51617;48.158;16.464;2023-04-01T06:08:21;12.60;85.20
65044;DHT22;51617;48.158;16.464;2023-04-01T06:15:47;12.80;84.50
65044;DHT22;51617;48.158;16.464;2023-04-01T06:26:16;12.90;84.00
65044;DHT22;51617;48.158;16.464;2023-04-01T06:31:36;13.00;84.10
65044;DHT22;51617;48.158;16.464;2023-04-01T06:34:20;13.00;83.70
65044;DHT22;51617;48.158;16.464;2023-04-01T06:42:18;13.20;83.40
65044;DHT22;51617;48.158;16.464;2023-04-01T06:47:27;13.20;83.70
65044;DHT22;51617;48.158;16.464;2023-04-01T06:50:00;13.20;84.20
65044;DHT22;51617;48.158;16.464;2023-04-01T06:52:50;13.30;83.10
65044;DHT22;51617;48.158;16.464;2023-04-01T06:55:36;13.10;83.50
65044;DHT22;51617;48.158;16.464;2023-04-01T06:58:04;13.20;83.70
65044;DHT22;51617;48.158;16.464;2023-04-01T07:03:18;13.30;83.30
65044;DHT22;51617;48.158;16.464;2023-04-01T07:05:45;13.30;83.70
65044;DHT22;51617;48.158;16.464;2023-04-01T07:08:18;13.30;83.80
65044;DHT22;51617;48.158;16.464;2023-04-01T07:10:47;13.30;83.00
65044;DHT22;51617;48.158;16.464;2023-04-01T07:13:18;13.20;83.50
65044;DHT22;51617;48.158;16.464;2023-04-01T07:18:32;13.10;83.30
65044;DHT22;51617;48.158;16.464;2023-04-01T07:21:00;13.20;83.30
65044;DHT22;51617;48.158;16.464;2023-04-01T07:23:31;13.20;83.00
65044;DHT22;51617;48.158;16.464;2023-04-01T07:25:59;13.20;83.40
65044;DHT22;51617;48.158;16.464;2023-04-01T07:28:26;13.50;83.70
65044;DHT22;51617;48.158;16.464;2023-04-01T07:36:00;13.50;80.30
65044;DHT22;51617;48.158;16.464;2023-04-01T07:38:45;13.50;80.20
65044;DHT22;51617;48.158;16.464;2023-04-01T07:43:53;13.50;81.30
65044;DHT22;51617;48.158;16.464;2023-04-01T07:49:14;13.70;80.60
65044;DHT22;51617;48.158;16.464;2023-04-01T07:59:39;13.80;80.60
65044;DHT22;51617;48.158;16.464;2023-04-01T08:07:25;13.90;80.50
65044;DHT22;51617;48.158;16.464;2023-04-01T08:10:10;14.00;79.70
65044;DHT22;51617;48.158;16.464;2023-04-01T08:12:42;14.10;79.60
65044;DHT22;51617;48.158;16.464;2023-04-01T08:15:12;14.00;79.50
65044;DHT22;51617;48.158;16.464;2023-04-01T08:22:42;14.20;78.60
65044;DHT22;51617;48.158;16.464;2023-04-01T08:25:10;14.30;78.80
65044;DHT22;51617;48.158;16.464;2023-04-01T08:27:38;14.50;78.10
65044;DHT22;51617;48.158;16.464;2023-04-01T08:32:35;14.80;78.00
65044;DHT22;51617;48.158;16.464;2023-04-01T08:35:11;14.80;76.90
65044;DHT22;51617;48.158;16.464;2023-04-01T08:37:39;14.80;75.10
65044;DHT22;51617;48.158;16.464;2023-04-01T08:40:16;14.70;76.10
65044;DHT22;51617;48.158;16.464;2023-04-01T09:03:41;14.70;76.40
65044;DHT22;51617;48.158;16.464;2023-04-01T09:23:58;14.90;75.30
65044;DHT22;51617;48.158;16.464;2023-04-01T09:47:00;15.00;73.10
65044;DHT22;51617;48.158;16.464;2023-04-01T09:52:08;15.00;74.50
65044;DHT22;51617;48.158;16.464;2023-04-01T10:13:11;15.20;73.40
65044;DHT22;51617;48.158;16.464;2023-04-01T10:23:25;15.50;70.30
65044;DHT22;51617;48.158;16.464;2023-04-01T10:28:31;15.70;71.20
65044;DHT22;51617;48.158;16.464;2023-04-01T10:31:03;15.90;69.20
65044;DHT22;51617;48.158;16.464;2023-04-01T10:33:54;15.80;68.50
65044;DHT22;51617;48.158;16.464;2023-04-01T10:39:27;15.70;69.70
65044;DHT22;51617;48.158;16.464;2023-04-01T10:42:11;15.60;69.80
65044;DHT22;51617;48.158;16.464;2023-04-01T11:29:36;15.40;69.10
65044;DHT22;51617;48.158;16.464;2023-04-01T11:39:46;15.50;70.20
65044;DHT22;51617;48.158;16.464;2023-04-01T11:44:58;15.60;68.90
65044;DHT22;51617;48.158;16.464;2023-04-01T11:58:10;15.90;68.30
65044;DHT22;51617;48.158;16.464;2023-04-01T12:10:46;16.10;66.50
65044;DHT22;51617;48.158;16.464;2023-04-01T12:15:56;16.10;67.00
65044;DHT22;51617;48.158;16.464;2023-04-01T12:18:30;16.30;66.90
65044;DHT22;51617;48.158;16.464;2023-04-01T12:34:58;16.30;65.50
65044;DHT22;51617;48.158;16.464;2023-04-01T12:40:02;16.40;66.70
65044;DHT22;51617;48.158;16.464;2023-04-01T12:42:53;16.40;65.50
65044;DHT22;51617;48.158;16.464;2023-04-01T12:45:38;16.50;65.40
65044;DHT22;51617;48.158;16.464;2023-04-01T12:55:41;16.50;65.00
65044;DHT22;51617;48.158;16.464;2023-04-01T12:58:26;16.40;64.90
65044;DHT22;51617;48.158;16.464;2023-04-01T13:00:59;16.40;65.50
65044;DHT22;51617;48.158;16.464;2023-04-01T13:03:50;16.40;65.40
65044;DHT22;51617;48.158;16.464;2023-04-01T13:06:29;16.20;66.90
65044;DHT22;51617;48.158;16.464;2023-04-01T13:17:07;16.30;66.70
65044;DHT22;51617;48.158;16.464;2023-04-01T13:27:19;17.20;65.90
65044;DHT22;51617;48.158;16.464;2023-04-01T13:30:01;17.40;65.10
65044;DHT22;51617;48.158;16.464;2023-04-01T13:42:57;17.30;62.10
65044;DHT22;51617;48.158;16.464;2023-04-01T13:45:29;17.30;62.50
65044;DHT22;51617;48.158;16.464;2023-04-01T13:50:52;17.10;63.10
65044;DHT22;51617;48.158;16.464;2023-04-01T14:09:32;17.60;59.60
65044;DHT22;51617;48.158;16.464;2023-04-01T14:17:34;17.90;58.90
65044;DHT22;51617;48.158;16.464;2023-04-01T14:27:46;17.60;60.10
65044;DHT22;51617;48.158;16.464;2023-04-01T14:30:18;17.60;59.80
65044;DHT22;51617;48.158;16.464;2023-04-01T14:41:36;17.80;59.20
65044;DHT22;51617;48.158;16.464;2023-04-01T14:49:35;17.60;58.30
65044;DHT22;51617;48.158;16.464;2023-04-01T14:52:05;17.60;58.30
65044;DHT22;51617;48.158;16.464;2023-04-01T14:54:36;17.80;57.60
65044;DHT22;51617;48.158;16.464;2023-04-01T14:57:09;18.00;57.80
65044;DHT22;51617;48.158;16.464;2023-04-01T14:59:38;18.20;56.00
65044;DHT22;51617;48.158;16.464;2023-04-01T15:12:20;18.30;53.90
65044;DHT22;51617;48.158;16.464;2023-04-01T15:28:00;18.00;54.90
65044;DHT22;51617;48.158;16.464;2023-04-01T15:38:34;17.90;56.80
65044;DHT22;51617;48.158;16.464;2023-04-01T15:41:17;18.00;57.30
65044;DHT22;51617;48.158;16.464;2023-04-01T15:43:47;17.90;58.00
65044;DHT22;51617;48.158;16.464;2023-04-01T15:56:40;19.10;58.20
65044;DHT22;51617;48.158;16.464;2023-04-01T16:01:51;18.60;58.70
65044;DHT22;51617;48.158;16.464;2023-04-01T16:12:16;17.30;62.90
65044;DHT22;51617;48.158;16.464;2023-04-01T16:17:12;17.70;62.20
65044;DHT22;51617;48.158;16.464;2023-04-01T16:22:22;18.50;60.80
65044;DHT22;51617;48.158;16.464;2023-04-01T16:29:49;18.80;58.40
65044;DHT22;51617;48.158;16.464;2023-04-01T16:32:20;18.20;59.90
65044;DHT22;51617;48.158;16.464;2023-04-01T16:34:54;18.10;60.90
65044;DHT22;51617;48.158;16.464;2023-04-01T16:37:27;18.10;60.60
65044;DHT22;51617;48.158;16.464;2023-04-01T16:47:38;16.60;65.50
65044;DHT22;51617;48.158;16.464;2023-04-01T16:50:07;16.30;66.50
65044;DHT22;51617;48.158;16.464;2023-04-01T16:55:18;15.90;68.40
65044;DHT22;51617;48.158;16.464;2023-04-01T17:02:43;15.40;71.10
65044;DHT22;51617;48.158;16.464;2023-04-01T17:05:11;15.40;71.80
65044;DHT22;51617;48.158;16.464;2023-04-01T17:07:59;15.40;71.70
65044;DHT22;51617;48.158;16.464;2023-04-01T17:13:05;14.90;70.90
65044;DHT22;51617;48.158;16.464;2023-04-01T17:15:37;14.80;71.80
65044;DHT22;51617;48.158;16.464;2023-04-01T17:20:43;14.60;73.10
65044;DHT22;51617;48.158;16.464;2023-04-01T17:23:16;14.50;73.40
65044;DHT22;51617;48.158;16.464;2023-04-01T17:25:47;14.40;73.90
65044;DHT22;51617;48.158;16.464;2023-04-01T17:28:21;14.40;74.50
65044;DHT22;51617;48.158;16.464;2023-04-01T17:36:16;14.10;76.80
65044;DHT22;51617;48.158;16.464;2023-04-01T17:59:45;13.60;81.10
65044;DHT22;51617;48.158;16.464;2023-04-01T18:12:17;13.20;83.60
65044;DHT22;51617;48.158;16.464;2023-04-01T18:17:40;13.10;84.00
65044;DHT22;51617;48.158;16.464;2023-04-01T18:22:41;13.00;84.20
65044;DHT22;51617;48.158;16.464;2023-04-01T18:28:36;12.90;84.30
65044;DHT22;51617;48.158;16.464;2023-04-01T18:30:41;12.90;84.50
65044;DHT22;51617;48.158;16.464;2023-04-01T18:33:21;12.90;84.80
65044;DHT22;51617;48.158;16.464;2023-04-01T18:35:57;12.90;84.80
65044;DHT22;51617;48.158;16.464;2023-04-01T18:38:36;12.80;85.00
65044;DHT22;51617;48.158;16.464;2023-04-01T18:43:38;12.80;84.80
65044;DHT22;51617;48.158;16.464;2023-04-01T18:46:27;12.80;85.20
65044;DHT22;51617;48.158;16.464;2023-04-01T18:48:52;12.80;85.70
65044;DHT22;51617;48.158;16.464;2023-04-01T18:51:21;12.80;85.10
65044;DHT22;51617;48.158;16.464;2023-04-01T18:53:58;12.80;85.30
65044;DHT22;51617;48.158;16.464;2023-04-01T18:56:30;12.80;85.30
65044;DHT22;51617;48.158;16.464;2023-04-01T18:58:59;12.70;85.50
65044;DHT22;51617;48.158;16.464;2023-04-01T19:04:15;12.80;85.90
65044;DHT22;51617;48.158;16.464;2023-04-01T19:06:50;12.70;86.40
65044;DHT22;51617;48.158;16.464;2023-04-01T19:09:25;12.80;86.70
65044;DHT22;51617;48.158;16.464;2023-04-01T19:11:55;12.70;86.70
65044;DHT22;51617;48.158;16.464;2023-04-01T19:27:37;12.60;87.90
65044;DHT22;51617;48.158;16.464;2023-04-01T19:30:08;12.50;88.20
65044;DHT22;51617;48.158;16.464;2023-04-01T19:32:50;12.40;88.20
65044;DHT22;51617;48.158;16.464;2023-04-01T19:35:23;12.40;88.30
65044;DHT22;51617;48.158;16.464;2023-04-01T19:45:54;12.30;88.70
65044;DHT22;51617;48.158;16.464;2023-04-01T19:51:09;12.30;89.00
65044;DHT22;51617;48.158;16.464;2023-04-01T19:53:43;12.20;89.30
65044;DHT22;51617;48.158;16.464;2023-04-01T20:01:06;12.10;90.00
65044;DHT22;51617;48.158;16.464;2023-04-01T20:14:01;12.10;90.20
65044;DHT22;51617;48.158;16.464;2023-04-01T20:16:46;12.00;90.30
65044;DHT22;51617;48.158;16.464;2023-04-01T20:19:14;12.00;90.20
65044;DHT22;51617;48.158;16.464;2023-04-01T20:21:46;12.00;90.30
65044;DHT22;51617;48.158;16.464;2023-04-01T20:26:40;12.00;90.40
65044;DHT22;51617;48.158;16.464;2023-04-01T20:29:24;11.90;90.50
65044;DHT22;51617;48.158;16.464;2023-04-01T20:32:04;11.90;90.60
65044;DHT22;51617;48.158;16.464;2023-04-01T20:42:47;12.00;90.50
65044;DHT22;51617;48.158;16.464;2023-04-01T20:47:51;11.90;90.70
65044;DHT22;51617;48.158;16.464;2023-04-01T21:01:08;12.00;90.60
65044;DHT22;51617;48.158;16.464;2023-04-01T21:03:42;12.10;90.40
65044;DHT22;51617;48.158;16.464;2023-04-01T21:11:42;12.00;90.50
65044;DHT22;51617;48.158;16.464;2023-04-01T21:19:39;12.10;90.50
65044;DHT22;51617;48.158;16.464;2023-04-01T21:22:27;12.10;90.40
65044;DHT22;51617;48.158;16.464;2023-04-01T21:25:05;12.10;91.40
65044;DHT22;51617;48.158;16.464;2023-04-01T21:27:47;12.30;91.30
65044;DHT22;51617;48.158;16.464;2023-04-01T21:30:36;12.40;91.20
65044;DHT22;51617;48.158;16.464;2023-04-01T21:38:36;12.40;89.90
65044;DHT22;51617;48.158;16.464;2023-04-01T21:56:16;12.20;90.40
65044;DHT22;51617;48.158;16.464;2023-04-01T22:06:38;12.10;90.70
65044;DHT22;51617;48.158;16.464;2023-04-01T22:19:12;12.10;90.80
65044;DHT22;51617;48.158;16.464;2023-04-01T22:22:22;12.10;90.90
65044;DHT22;51617;48.158;16.464;2023-04-01T22:24:40;12.20;90.80
65044;DHT22;51617;48.158;16.464;2023-04-01T22:27:28;12.10;90.90
65044;DHT22;51617;48.158;16.464;2023-04-01T22:32:44;12.10;91.00
65044;DHT22;51617;48.158;16.464;2023-04-01T22:37:54;12.10;91.10
65044;DHT22;51617;48.158;16.464;2023-04-01T22:43:06;12.10;91.00
65044;DHT22;51617;48.158;16.464;2023-04-01T22:48:30;12.10;91.00
65044;DHT22;51617;48.158;16.464;2023-04-01T22:53:45;12.10;90.80
65044;DHT22;51617;48.158;16.464;2023-04-01T22:56:19;12.20;90.90
65044;DHT22;51617;48.158;16.464;2023-04-01T22:58:55;12.10;90.80
65044;DHT22;51617;48.158;16.464;2023-04-01T23:01:24;12.20;90.80
65044;DHT22;51617;48.158;16.464;2023-04-01T23:03:51;12.20;90.70
65044;DHT22;51617;48.158;16.464;2023-04-01T23:06:20;12.20;90.70
65044;DHT22;51617;48.158;16.464;2023-04-01T23:11:20;12.30;90.50
65044;DHT22;51617;48.158;16.464;2023-04-01T23:13:49;12.30;90.40
65044;DHT22;51617;48.158;16.464;2023-04-01T23:16:27;12.40;90.30
65044;DHT22;51617;48.158;16.464;2023-04-01T23:21:40;12.30;90.50
65044;DHT22;51617;48.158;16.464;2023-04-01T23:24:20;12.30;90.30
65044;DHT22;51617;48.158;16.464;2023-04-01T23:26:50;12.20;90.40
65044;DHT22;51617;48.158;16.464;2023-04-01T23:29:17;12.30;90.40
65044;DHT22;51617;48.158;16.464;2023-04-01T23:32:43;12.20;90.50
65044;DHT22;51617;48.158;16.464;2023-04-01T23:34:38;12.30;90.30
65044;DHT22;51617;48.158;16.464;2023-04-01T23:37:04;12.30;90.30
65044;DHT22;51617;48.158;16.464;2023-04-01T23:41:58;12.20;90.40
65044;DHT22;51617;48.158;16.464;2023-04-01T23:44:25;12.40;90.20
65044;DHT22;51617;48.158;16.464;2023-04-01T23:46:51;12.30;90.20
65044;DHT22;51617;48.158;16.464;2023-04-01T23:49:21;12.20;90.30
65044;DHT22;51617;48.158;16.464;2023-04-01T23:54:29;12.30;90.20
65044;DHT22;51617;48.158;16.464;2023-04-01T23:56:56;12.20;90.20
65044;DHT22;51617;48.158;16.464;2023-04-01T23:59:29;12.20;90.30
